Time;durP1;ratioP1;P1;durP2;ratioP2;P2;SDS_P1;SDS_P2;PMS_P1;PMS_P2;Temp;Humidity;BMP_temperature;BMP_pressure;BME280_temperature;BME280_humidity;BME280_pressure;Samples;Min_cycle;Max_cycle;Signal;HPM_P1;HPM_P2
2022/06/05 00:02:25;;;;;;;;;;;20.50;45.20;;;;;;4988993;28;19937;-66
2022/06/05 00:04:52;;;;;;;;;;;20.50;45.20;;;;;;5013040;28;19944;-67
2022/06/05 00:07:20;;;;;;;;;;;20.50;45.20;;;;;;4997912;28;19935;-66
2022/06/05 00:09:49;;;;;;;;;;;20.50;45.70;;;;;;5034694;28;19932;-66
2022/06/05 00:12:16;;;;;;;;;;;20.50;45.10;;;;;;5000092;28;19991;-66
2022/06/05 00:14:43;;;;;;;;;;;20.50;45.30;;;;;;5012014;28;20265;-67
2022/06/05 00:17:10;;;;;;;;;;;20.50;45.10;;;;;;5020099;28;19941;-67
2022/06/05 00:19:40;;;;;;;;;;;20.50;45.10;;;;;;5008077;28;20018;-66
2022/06/05 00:22:06;;;;;;;;;;;20.50;45.10;;;;;;4997045;28;19949;-66
2022/06/05 00:24:33;;;;;;;;;;;20.50;45.20;;;;;;5024439;28;19974;-67
2022/06/05 00:27:03;;;;;;;;;;;20.50;45.10;;;;;;5020630;28;19932;-66
2022/06/05 00:29:34;;;;;;;;;;;20.50;45.20;;;;;;5006588;28;19927;-66
2022/06/05 00:32:03;;;;;;;;;;;20.50;45.20;;;;;;4996699;28;19929;-67
2022/06/05 00:34:30;;;;;;;;;;;20.50;45.20;;;;;;4992326;28;19932;-66
2022/06/05 00:37:02;;;;;;;;;;;20.50;45.20;;;;;;4967109;28;19933;-66
2022/06/05 00:39:30;;;;;;;;;;;20.50;45.20;;;;;;5009110;28;19924;-67
2022/06/05 00:41:58;;;;;;;;;;;20.50;45.20;;;;;;4975682;28;20380;-66
2022/06/05 00:44:27;;;;;;;;;;;20.50;45.20;;;;;;4988775;28;19925;-66
2022/06/05 00:46:54;;;;;;;;;;;20.50;45.20;;;;;;4997748;28;19930;-66
2022/06/05 00:49:20;;;;;;;;;;;20.50;45.30;;;;;;4977239;28;19926;-67
2022/06/05 00:51:47;;;;;;;;;;;20.50;45.30;;;;;;5002339;28;19933;-67
2022/06/05 00:54:15;;;;;;;;;;;20.50;45.40;;;;;;5002592;28;20283;-66
2022/06/05 00:56:42;;;;;;;;;;;20.50;45.30;;;;;;5020594;28;19926;-66
2022/06/05 00:59:10;;;;;;;;;;;20.50;45.30;;;;;;5042295;28;19987;-66
2022/06/05 01:01:36;;;;;;;;;;;20.50;45.80;;;;;;4966039;28;19934;-66
2022/06/05 01:04:03;;;;;;;;;;;20.50;45.30;;;;;;4993050;28;19937;-66
2022/06/05 01:06:30;;;;;;;;;;;20.50;45.30;;;;;;5031901;28;19931;-66
2022/06/05 01:08:58;;;;;;;;;;;20.50;45.30;;;;;;5007652;28;19930;-66
2022/06/05 01:11:28;;;;;;;;;;;20.50;45.20;;;;;;5024693;28;19925;-66
2022/06/05 01:13:57;;;;;;;;;;;20.50;45.30;;;;;;4976220;28;19926;-66
2022/06/05 01:16:26;;;;;;;;;;;20.50;45.30;;;;;;4981169;28;19933;-66
2022/06/05 01:18:56;;;;;;;;;;;20.50;45.30;;;;;;4982889;28;19924;-66
2022/06/05 01:21:40;;;;;;;;;;;20.50;45.40;;;;;;5026291;28;19932;-66
2022/06/05 01:24:12;;;;;;;;;;;20.50;45.40;;;;;;4965948;28;19922;-67
2022/06/05 01:26:41;;;;;;;;;;;20.50;45.40;;;;;;5024999;28;19926;-66
2022/06/05 01:29:08;;;;;;;;;;;20.50;45.40;;;;;;4965206;28;19930;-66
2022/06/05 01:31:37;;;;;;;;;;;20.50;45.40;;;;;;5014641;28;19986;-66
2022/06/05 01:34:16;;;;;;;;;;;20.40;45.40;;;;;;4989993;28;19928;-66
2022/06/05 01:36:43;;;;;;;;;;;20.40;45.30;;;;;;5027555;28;20383;-66
2022/06/05 01:39:11;;;;;;;;;;;20.40;45.30;;;;;;4995673;28;19934;-66
2022/06/05 01:41:40;;;;;;;;;;;20.40;45.40;;;;;;4974364;28;20271;-66
2022/06/05 01:44:08;;;;;;;;;;;20.40;45.30;;;;;;5020233;28;19931;-66
2022/06/05 01:46:36;;;;;;;;;;;20.40;45.30;;;;;;5021556;28;19974;-67
2022/06/05 01:49:03;;;;;;;;;;;20.40;45.40;;;;;;5010753;28;19937;-66
2022/06/05 01:51:30;;;;;;;;;;;20.40;45.40;;;;;;4977538;28;19964;-66
2022/06/05 01:53:57;;;;;;;;;;;20.40;45.40;;;;;;5042106;28;19956;-66
2022/06/05 01:56:25;;;;;;;;;;;20.40;45.40;;;;;;5011493;28;19941;-66
2022/06/05 01:58:54;;;;;;;;;;;20.40;45.40;;;;;;4990452;28;19997;-67
2022/06/05 02:01:23;;;;;;;;;;;20.40;45.40;;;;;;4977010;28;19924;-66
2022/06/05 02:03:51;;;;;;;;;;;20.40;45.40;;;;;;4969245;28;19926;-66
2022/06/05 02:06:20;;;;;;;;;;;20.40;45.40;;;;;;4992588;28;19933;-66
2022/06/05 02:08:48;;;;;;;;;;;20.40;45.40;;;;;;4986811;28;20016;-66
2022/06/05 02:11:15;;;;;;;;;;;20.40;45.50;;;;;;5049019;28;19929;-66
2022/06/05 02:13:42;;;;;;;;;;;20.40;45.50;;;;;;5013472;28;19966;-66
2022/06/05 02:16:10;;;;;;;;;;;20.40;45.50;;;;;;4997753;28;19927;-66
2022/06/05 02:18:37;;;;;;;;;;;20.40;45.60;;;;;;5003756;28;19924;-66
2022/06/05 02:21:04;;;;;;;;;;;20.40;45.60;;;;;;5026300;28;20273;-66
2022/06/05 02:23:32;;;;;;;;;;;20.30;45.50;;;;;;5008035;28;19977;-66
2022/06/05 02:25:59;;;;;;;;;;;20.40;45.60;;;;;;5010994;28;19930;-66
2022/06/05 02:28:25;;;;;;;;;;;20.40;45.80;;;;;;5011563;28;20367;-66
2022/06/05 02:30:55;;;;;;;;;;;20.30;45.40;;;;;;5010649;28;19925;-66
2022/06/05 02:33:24;;;;;;;;;;;20.40;45.50;;;;;;5008186;28;20460;-66
2022/06/05 02:35:53;;;;;;;;;;;20.40;45.50;;;;;;4975879;28;20070;-66
2022/06/05 02:38:23;;;;;;;;;;;20.40;45.50;;;;;;5006593;28;19933;-66
2022/06/05 02:40:54;;;;;;;;;;;20.40;45.60;;;;;;4960323;28;20406;-66
2022/06/05 02:43:21;;;;;;;;;;;20.40;45.60;;;;;;5026099;28;19924;-66
2022/06/05 02:45:52;;;;;;;;;;;20.40;45.60;;;;;;4982925;28;19930;-67
2022/06/05 02:48:21;;;;;;;;;;;20.30;45.50;;;;;;4981370;28;20452;-66
2022/06/05 02:50:50;;;;;;;;;;;20.40;45.60;;;;;;5025375;28;19925;-66
2022/06/05 02:53:18;;;;;;;;;;;20.30;45.50;;;;;;5000760;28;19933;-66
2022/06/05 02:55:45;;;;;;;;;;;20.30;45.60;;;;;;5027751;28;19934;-66
2022/06/05 02:58:12;;;;;;;;;;;20.30;45.60;;;;;;5045001;28;19930;-67
2022/06/05 03:00:39;;;;;;;;;;;20.30;45.60;;;;;;5014792;28;20014;-66
2022/06/05 03:05:51;;;;;;;;;;;20.30;45.50;;;;;;5020516;28;19925;-67
2022/06/05 03:08:19;;;;;;;;;;;20.30;45.50;;;;;;5035032;28;19925;-67
2022/06/05 03:10:46;;;;;;;;;;;20.30;45.60;;;;;;5003282;28;19932;-66
2022/06/05 03:13:13;;;;;;;;;;;20.30;45.50;;;;;;5002798;28;19930;-66
2022/06/05 03:15:41;;;;;;;;;;;20.30;45.60;;;;;;4993586;28;19926;-66
2022/06/05 03:18:07;;;;;;;;;;;20.30;45.60;;;;;;5029250;28;20384;-67
2022/06/05 03:20:35;;;;;;;;;;;20.30;45.60;;;;;;5000503;28;19979;-66
2022/06/05 03:23:03;;;;;;;;;;;20.30;45.60;;;;;;5013868;28;20135;-66
2022/06/05 03:25:30;;;;;;;;;;;20.30;45.70;;;;;;5012906;28;19924;-67
2022/06/05 03:27:57;;;;;;;;;;;20.30;45.70;;;;;;4997871;28;20017;-67
2022/06/05 03:30:24;;;;;;;;;;;20.30;45.70;;;;;;5002738;28;20017;-67
2022/06/05 03:32:51;;;;;;;;;;;20.30;45.70;;;;;;5014216;28;19932;-66
2022/06/05 03:35:17;;;;;;;;;;;20.30;45.70;;;;;;4989560;28;20423;-66
2022/06/05 03:37:45;;;;;;;;;;;20.30;45.70;;;;;;4967583;28;19927;-66
2022/06/05 03:40:15;;;;;;;;;;;20.30;45.70;;;;;;5017518;28;19931;-66
2022/06/05 03:42:42;;;;;;;;;;;20.30;45.70;;;;;;5027558;28;20400;-66
2022/06/05 03:45:11;;;;;;;;;;;20.30;45.80;;;;;;5003445;28;19952;-66
2022/06/05 03:47:38;;;;;;;;;;;20.30;45.80;;;;;;4994718;28;19979;-66
2022/06/05 03:50:06;;;;;;;;;;;20.30;45.80;;;;;;4995458;28;20019;-66
2022/06/05 03:52:32;;;;;;;;;;;20.30;45.80;;;;;;5019583;28;19926;-66
2022/06/05 03:54:59;;;;;;;;;;;20.30;45.90;;;;;;4951777;28;19930;-67
2022/06/05 03:57:27;;;;;;;;;;;20.30;45.80;;;;;;5019477;28;20224;-66
2022/06/05 03:59:54;;;;;;;;;;;20.30;46.40;;;;;;5058053;28;19926;-66
2022/06/05 04:02:25;;;;;;;;;;;20.20;45.90;;;;;;4997515;28;19933;-66
2022/06/05 04:04:51;;;;;;;;;;;20.20;45.90;;;;;;5017593;28;19965;-66
2022/06/05 04:07:18;;;;;;;;;;;20.20;45.90;;;;;;4989090;28;19925;-66
2022/06/05 04:09:45;;;;;;;;;;;20.20;45.90;;;;;;4990433;28;19926;-66
2022/06/05 04:12:12;;;;;;;;;;;20.20;46.00;;;;;;5025484;28;20011;-67
2022/06/05 04:14:40;;;;;;;;;;;20.20;45.90;;;;;;5029905;28;20305;-66
2022/06/05 04:17:06;;;;;;;;;;;20.20;45.90;;;;;;5009701;28;20025;-66
2022/06/05 04:19:33;;;;;;;;;;;20.20;45.90;;;;;;5002313;28;20380;-66
2022/06/05 04:22:00;;;;;;;;;;;20.20;45.90;;;;;;5045796;28;19950;-66
2022/06/05 04:24:27;;;;;;;;;;;20.20;45.90;;;;;;5013619;28;19933;-66
2022/06/05 04:26:53;;;;;;;;;;;20.20;45.90;;;;;;4995319;28;20398;-66
2022/06/05 04:29:20;;;;;;;;;;;20.20;45.90;;;;;;5025138;28;19980;-66
2022/06/05 04:31:48;;;;;;;;;;;20.20;45.90;;;;;;5010314;28;19934;-66
2022/06/05 04:34:17;;;;;;;;;;;20.20;46.00;;;;;;5003085;28;19924;-66
2022/06/05 04:36:44;;;;;;;;;;;20.20;46.10;;;;;;5018499;28;19924;-66
2022/06/05 04:39:10;;;;;;;;;;;20.20;46.10;;;;;;4969588;28;19926;-67
2022/06/05 04:41:37;;;;;;;;;;;20.20;46.10;;;;;;4989997;28;19930;-66
2022/06/05 04:44:07;;;;;;;;;;;20.20;46.20;;;;;;5007154;28;20260;-66
2022/06/05 04:46:33;;;;;;;;;;;20.20;46.20;;;;;;4962076;28;19927;-66
2022/06/05 04:49:02;;;;;;;;;;;20.20;46.30;;;;;;5011614;28;19965;-66
2022/06/05 04:51:30;;;;;;;;;;;20.20;46.30;;;;;;5010142;28;20371;-66
2022/06/05 04:53:57;;;;;;;;;;;20.20;46.40;;;;;;4973911;28;19926;-66
2022/06/05 04:56:25;;;;;;;;;;;20.20;46.40;;;;;;5011510;28;19966;-66
2022/06/05 04:58:53;;;;;;;;;;;20.10;46.40;;;;;;5022891;28;19925;-67
2022/06/05 05:01:20;;;;;;;;;;;20.10;46.40;;;;;;5000041;28;20299;-66
2022/06/05 05:03:47;;;;;;;;;;;20.10;46.50;;;;;;4985468;28;19933;-66
2022/06/05 05:06:15;;;;;;;;;;;20.10;46.60;;;;;;4971286;28;19934;-67
2022/06/05 05:08:42;;;;;;;;;;;20.10;46.60;;;;;;5002770;28;20264;-66
2022/06/05 05:11:08;;;;;;;;;;;20.10;46.60;;;;;;5002009;28;19928;-67
2022/06/05 05:13:35;;;;;;;;;;;20.10;46.70;;;;;;4986108;28;19924;-67
2022/06/05 05:16:02;;;;;;;;;;;20.10;46.70;;;;;;5022957;28;19931;-66
2022/06/05 05:18:29;;;;;;;;;;;20.10;46.70;;;;;;5005800;28;20025;-67
2022/06/05 05:20:55;;;;;;;;;;;20.10;46.70;;;;;;4999991;28;19934;-66
2022/06/05 05:23:23;;;;;;;;;;;20.10;46.70;;;;;;4984927;28;19973;-67
2022/06/05 05:25:50;;;;;;;;;;;20.10;46.70;;;;;;4981637;28;19933;-66
2022/06/05 05:28:17;;;;;;;;;;;20.10;46.70;;;;;;5015822;28;19924;-67
2022/06/05 05:30:44;;;;;;;;;;;20.10;46.70;;;;;;4995197;28;20299;-67
2022/06/05 05:33:11;;;;;;;;;;;20.10;46.60;;;;;;4993404;28;20370;-66
2022/06/05 05:35:37;;;;;;;;;;;20.10;46.50;;;;;;5000448;28;20004;-66
2022/06/05 05:38:04;;;;;;;;;;;20.10;46.50;;;;;;5005646;28;19941;-67
2022/06/05 05:43:16;;;;;;;;;;;20.10;46.60;;;;;;4964499;28;19937;-67
2022/06/05 05:45:44;;;;;;;;;;;20.10;46.60;;;;;;4998186;28;19931;-66
2022/06/05 05:48:10;;;;;;;;;;;20.10;46.60;;;;;;4986586;28;19930;-67
2022/06/05 05:50:37;;;;;;;;;;;20.10;46.50;;;;;;5002904;28;20377;-67
2022/06/05 05:53:04;;;;;;;;;;;20.10;46.50;;;;;;5010368;28;19930;-67
2022/06/05 05:55:31;;;;;;;;;;;20.10;46.50;;;;;;4989030;28;19946;-67
2022/06/05 05:57:59;;;;;;;;;;;20.10;46.50;;;;;;5028485;28;19935;-66
2022/06/05 06:00:26;;;;;;;;;;;20.10;46.50;;;;;;5003944;28;20529;-67
2022/06/05 06:02:52;;;;;;;;;;;20.10;46.60;;;;;;4992006;28;19967;-66
2022/06/05 06:05:19;;;;;;;;;;;20.10;46.70;;;;;;4993825;28;19933;-67
2022/06/05 06:07:46;;;;;;;;;;;20.10;46.70;;;;;;5004678;28;20528;-66
2022/06/05 06:10:13;;;;;;;;;;;20.10;46.80;;;;;;5008684;28;19924;-67
2022/06/05 06:12:41;;;;;;;;;;;20.10;46.90;;;;;;5041308;28;19970;-67
2022/06/05 06:15:10;;;;;;;;;;;20.10;47.00;;;;;;5023072;28;20565;-66
2022/06/05 06:17:36;;;;;;;;;;;20.10;47.10;;;;;;4968838;28;19925;-67
2022/06/05 06:20:03;;;;;;;;;;;20.10;47.10;;;;;;4995027;28;19926;-67
2022/06/05 06:22:30;;;;;;;;;;;20.10;47.20;;;;;;4978172;28;19927;-66
2022/06/05 06:24:57;;;;;;;;;;;20.10;47.20;;;;;;5007167;28;19932;-67
2022/06/05 06:27:24;;;;;;;;;;;20.10;47.10;;;;;;5000635;28;19961;-67
2022/06/05 06:29:51;;;;;;;;;;;20.10;47.10;;;;;;5019566;28;19941;-66
2022/06/05 06:32:19;;;;;;;;;;;20.10;47.10;;;;;;5015652;28;19978;-66
2022/06/05 06:34:46;;;;;;;;;;;20.10;47.10;;;;;;5013400;28;19933;-67
2022/06/05 06:37:12;;;;;;;;;;;20.10;47.20;;;;;;5018044;28;19941;-67
2022/06/05 06:39:39;;;;;;;;;;;20.10;47.30;;;;;;4989448;28;20378;-66
2022/06/05 06:42:06;;;;;;;;;;;20.10;47.30;;;;;;4998882;28;20054;-66
2022/06/05 06:44:33;;;;;;;;;;;20.10;47.20;;;;;;5016304;28;19928;-66
2022/06/05 06:46:59;;;;;;;;;;;20.10;47.20;;;;;;5023142;28;19951;-66
2022/06/05 06:49:28;;;;;;;;;;;20.10;47.20;;;;;;5002297;28;19926;-67
2022/06/05 06:51:54;;;;;;;;;;;20.10;47.20;;;;;;4999889;28;19926;-67
2022/06/05 06:54:22;;;;;;;;;;;20.10;47.30;;;;;;5010609;28;19925;-67
2022/06/05 06:56:48;;;;;;;;;;;20.10;47.20;;;;;;5039016;28;19924;-66
2022/06/05 06:59:15;;;;;;;;;;;20.00;47.20;;;;;;4967484;28;20354;-66
2022/06/05 07:01:42;;;;;;;;;;;20.00;47.10;;;;;;5045138;28;19942;-66
2022/06/05 07:04:09;;;;;;;;;;;20.00;47.20;;;;;;4970882;28;20367;-67
2022/06/05 07:06:37;;;;;;;;;;;20.00;47.30;;;;;;5014595;28;19928;-67
2022/06/05 07:09:04;;;;;;;;;;;20.00;47.30;;;;;;4992170;28;19926;-66
2022/06/05 07:11:30;;;;;;;;;;;20.00;47.40;;;;;;5015427;28;19934;-67
2022/06/05 07:13:57;;;;;;;;;;;20.00;47.40;;;;;;5025967;28;20399;-66
2022/06/05 07:16:24;;;;;;;;;;;20.00;47.40;;;;;;4973006;28;19990;-66
2022/06/05 07:18:51;;;;;;;;;;;20.00;47.40;;;;;;5062718;28;19941;-66
2022/06/05 07:21:18;;;;;;;;;;;20.00;47.40;;;;;;5012036;28;19926;-66
2022/06/05 07:23:47;;;;;;;;;;;20.00;47.40;;;;;;5003052;28;19927;-67
2022/06/05 07:26:14;;;;;;;;;;;20.00;47.30;;;;;;4992237;28;19924;-66
2022/06/05 07:28:40;;;;;;;;;;;20.10;47.30;;;;;;5048577;28;19979;-66
2022/06/05 07:31:07;;;;;;;;;;;20.10;47.30;;;;;;5039222;28;20023;-67
2022/06/05 07:33:34;;;;;;;;;;;20.10;47.20;;;;;;4974118;28;19941;-67
2022/06/05 07:36:03;;;;;;;;;;;20.10;47.40;;;;;;5003826;28;20456;-66
2022/06/05 07:38:30;;;;;;;;;;;20.10;47.50;;;;;;5008964;28;19927;-66
2022/06/05 07:40:58;;;;;;;;;;;20.10;47.50;;;;;;5018114;28;19974;-66
2022/06/05 07:43:25;;;;;;;;;;;20.10;47.50;;;;;;4978452;28;19930;-67
2022/06/05 07:45:52;;;;;;;;;;;20.10;47.40;;;;;;5008401;28;19924;-66
2022/06/05 07:48:19;;;;;;;;;;;20.10;47.50;;;;;;4990005;28;19924;-66
2022/06/05 07:56:30;;;;;;;;;;;20.10;47.50;;;;;;4901199;29;19931;-67
2022/06/05 07:58:57;;;;;;;;;;;20.10;47.60;;;;;;4970778;28;19967;-66
2022/06/05 08:01:23;;;;;;;;;;;20.10;47.50;;;;;;5032587;28;19926;-67
2022/06/05 08:03:50;;;;;;;;;;;20.10;47.40;;;;;;5000194;28;19930;-66
2022/06/05 08:06:17;;;;;;;;;;;20.10;47.40;;;;;;5046239;28;19922;-67
2022/06/05 08:08:44;;;;;;;;;;;20.10;47.40;;;;;;5025378;28;19931;-66
2022/06/05 08:11:10;;;;;;;;;;;20.10;47.40;;;;;;4991744;28;19937;-66
2022/06/05 08:13:39;;;;;;;;;;;20.10;47.40;;;;;;5022969;28;20258;-66
2022/06/05 08:16:06;;;;;;;;;;;20.10;47.30;;;;;;5040128;28;19924;-66
2022/06/05 08:18:33;;;;;;;;;;;20.20;47.40;;;;;;5000418;28;20025;-66
2022/06/05 08:21:00;;;;;;;;;;;20.20;47.40;;;;;;5020682;28;19937;-66
2022/06/05 08:23:26;;;;;;;;;;;20.20;47.40;;;;;;5017592;28;19932;-66
2022/06/05 08:25:53;;;;;;;;;;;20.20;47.90;;;;;;5007528;28;19932;-66
2022/06/05 08:28:20;;;;;;;;;;;20.20;47.40;;;;;;5023996;28;19961;-67
2022/06/05 08:30:48;;;;;;;;;;;20.20;47.40;;;;;;4993528;28;19969;-67
2022/06/05 08:33:15;;;;;;;;;;;20.20;47.40;;;;;;5018943;28;19934;-67
2022/06/05 08:35:42;;;;;;;;;;;20.20;47.40;;;;;;5002992;28;19928;-66
2022/06/05 08:43:44;;;;;;;;;;;20.20;47.30;;;;;;4998381;28;19930;-66
2022/06/05 08:46:12;;;;;;;;;;;20.20;47.20;;;;;;4967406;28;19930;-66
2022/06/05 08:48:40;;;;;;;;;;;20.20;47.20;;;;;;4974242;28;19930;-66
2022/06/05 08:51:13;;;;;;;;;;;20.20;47.20;;;;;;4979822;28;19968;-67
2022/06/05 08:53:41;;;;;;;;;;;20.20;47.10;;;;;;4984486;28;19926;-66
2022/06/05 08:56:08;;;;;;;;;;;20.20;47.10;;;;;;4961631;28;19926;-66
2022/06/05 08:58:37;;;;;;;;;;;20.20;46.90;;;;;;4987994;28;20396;-66
2022/06/05 09:01:04;;;;;;;;;;;20.20;46.90;;;;;;5000861;28;19926;-66
2022/06/05 09:03:33;;;;;;;;;;;20.20;46.90;;;;;;4990412;28;19922;-66
2022/06/05 09:06:02;;;;;;;;;;;20.20;46.90;;;;;;4979837;28;19926;-66
2022/06/05 09:08:32;;;;;;;;;;;20.20;46.80;;;;;;4989865;28;19931;-66
2022/06/05 09:10:59;;;;;;;;;;;20.20;46.80;;;;;;4976599;28;20071;-66
2022/06/05 09:13:28;;;;;;;;;;;20.30;46.90;;;;;;4998460;28;19930;-66
2022/06/05 09:15:57;;;;;;;;;;;20.30;46.80;;;;;;4993540;28;19924;-66
2022/06/05 09:18:24;;;;;;;;;;;20.20;46.70;;;;;;5007616;28;19947;-66
2022/06/05 09:20:53;;;;;;;;;;;20.30;46.80;;;;;;5025708;28;19924;-66
2022/06/05 09:23:24;;;;;;;;;;;20.30;46.80;;;;;;4994097;28;19926;-66
2022/06/05 09:25:53;;;;;;;;;;;20.30;46.80;;;;;;5007157;28;19953;-66
2022/06/05 09:28:35;;;;;;;;;;;20.30;46.70;;;;;;5006589;28;19926;-66
2022/06/05 09:31:03;;;;;;;;;;;20.30;46.60;;;;;;4970860;28;19932;-66
2022/06/05 09:33:31;;;;;;;;;;;20.30;46.60;;;;;;4979343;28;20378;-66
2022/06/05 09:36:00;;;;;;;;;;;20.30;46.60;;;;;;5010908;28;20349;-66
2022/06/05 09:38:27;;;;;;;;;;;20.30;46.60;;;;;;4978458;28;19926;-66
2022/06/05 09:40:57;;;;;;;;;;;20.30;46.60;;;;;;5018133;28;19926;-66
2022/06/05 09:43:30;;;;;;;;;;;20.30;46.60;;;;;;4999834;28;20460;-66
2022/06/05 09:46:03;;;;;;;;;;;20.40;46.80;;;;;;4970376;28;21814;-66
2022/06/05 09:48:33;;;;;;;;;;;20.40;46.70;;;;;;4977093;28;19974;-66
2022/06/05 09:51:01;;;;;;;;;;;20.40;46.60;;;;;;4966403;28;19991;-66
2022/06/05 09:53:28;;;;;;;;;;;20.40;46.50;;;;;;4972257;28;19926;-66
2022/06/05 09:55:58;;;;;;;;;;;20.40;46.50;;;;;;4989420;28;19993;-66
2022/06/05 09:58:31;;;;;;;;;;;20.40;46.40;;;;;;5010945;28;19932;-66
2022/06/05 10:00:59;;;;;;;;;;;20.40;46.40;;;;;;5005450;28;19926;-65
2022/06/05 10:03:28;;;;;;;;;;;20.40;46.20;;;;;;4993336;28;20389;-68
2022/06/05 10:06:10;;;;;;;;;;;20.40;46.10;;;;;;5001459;28;20024;-69
2022/06/05 10:08:39;;;;;;;;;;;20.40;46.10;;;;;;4986552;28;20279;-69
2022/06/05 10:11:06;;;;;;;;;;;20.40;45.90;;;;;;4982543;28;19926;-70
2022/06/05 10:13:40;;;;;;;;;;;20.40;45.80;;;;;;4981601;28;19973;-69
2022/06/05 10:16:08;;;;;;;;;;;20.40;45.60;;;;;;4989761;28;20276;-69
2022/06/05 10:18:38;;;;;;;;;;;20.40;45.50;;;;;;4963996;28;19970;-69
2022/06/05 10:21:06;;;;;;;;;;;20.40;45.40;;;;;;4985489;28;19926;-69
2022/06/05 10:23:46;;;;;;;;;;;20.40;45.20;;;;;;4980902;28;20032;-69
2022/06/05 10:26:15;;;;;;;;;;;20.40;45.30;;;;;;4966013;28;19934;-69
2022/06/05 10:28:42;;;;;;;;;;;20.40;45.30;;;;;;4965656;28;20366;-69
2022/06/05 10:31:09;;;;;;;;;;;20.40;45.30;;;;;;4983086;28;19926;-69
2022/06/05 10:33:43;;;;;;;;;;;20.50;45.40;;;;;;4979788;28;19972;-69
2022/06/05 10:36:12;;;;;;;;;;;20.50;45.40;;;;;;4958426;28;19938;-69
2022/06/05 10:38:41;;;;;;;;;;;20.40;45.30;;;;;;4978243;28;19926;-69
2022/06/05 10:41:16;;;;;;;;;;;20.50;45.40;;;;;;4983560;28;20041;-69
2022/06/05 10:43:43;;;;;;;;;;;20.50;45.40;;;;;;4963427;28;19929;-69
2022/06/05 10:46:18;;;;;;;;;;;20.50;45.40;;;;;;4964132;28;19953;-69
2022/06/05 10:48:46;;;;;;;;;;;20.50;45.30;;;;;;4966687;28;20028;-69
2022/06/05 10:51:19;;;;;;;;;;;20.50;45.30;;;;;;4983306;28;19934;-69
2022/06/05 10:53:47;;;;;;;;;;;20.50;45.30;;;;;;4998057;28;20342;-69
2022/06/05 10:56:18;;;;;;;;;;;20.50;45.30;;;;;;4964087;28;19937;-69
2022/06/05 10:58:46;;;;;;;;;;;20.50;45.30;;;;;;4984158;28;19947;-69
2022/06/05 11:01:31;;;;;;;;;;;20.60;45.40;;;;;;4964999;28;19933;-69
2022/06/05 11:03:58;;;;;;;;;;;20.60;45.40;;;;;;4978323;28;19926;-69
2022/06/05 11:06:30;;;;;;;;;;;20.60;45.50;;;;;;4978979;28;19934;-69
2022/06/05 11:09:01;;;;;;;;;;;20.60;45.50;;;;;;4959445;28;19930;-69
2022/06/05 11:14:18;;;;;;;;;;;20.60;45.50;;;;;;4964158;28;19927;-69
2022/06/05 11:16:48;;;;;;;;;;;20.60;45.50;;;;;;4963643;28;19933;-69
2022/06/05 11:19:16;;;;;;;;;;;20.60;46.10;;;;;;4961382;28;20539;-69
2022/06/05 11:21:43;;;;;;;;;;;20.60;45.50;;;;;;4960841;28;19935;-69
2022/06/05 11:24:19;;;;;;;;;;;20.70;45.50;;;;;;4958785;28;19934;-69
2022/06/05 11:26:48;;;;;;;;;;;20.70;45.40;;;;;;4964653;28;20441;-69
2022/06/05 11:29:19;;;;;;;;;;;20.70;45.40;;;;;;4964408;28;19976;-69
2022/06/05 11:31:56;;;;;;;;;;;20.70;45.30;;;;;;4962788;28;20023;-69
2022/06/05 11:34:24;;;;;;;;;;;20.70;45.20;;;;;;4974669;28;19977;-69
2022/06/05 11:36:51;;;;;;;;;;;20.70;45.20;;;;;;4961290;28;20013;-69
2022/06/05 11:39:25;;;;;;;;;;;20.70;45.20;;;;;;4963253;28;19931;-69
2022/06/05 11:41:55;;;;;;;;;;;20.70;45.20;;;;;;4978223;28;19934;-69
2022/06/05 11:44:27;;;;;;;;;;;20.70;45.20;;;;;;4960905;28;19931;-68
2022/06/05 11:46:57;;;;;;;;;;;20.70;45.10;;;;;;4960548;28;19935;-69
2022/06/05 11:49:30;;;;;;;;;;;20.70;45.10;;;;;;4951851;28;19926;-68
2022/06/05 11:51:59;;;;;;;;;;;20.70;45.00;;;;;;4956330;28;19930;-69
2022/06/05 11:54:26;;;;;;;;;;;20.70;45.00;;;;;;4959514;28;20291;-69
2022/06/05 11:57:04;;;;;;;;;;;20.80;45.10;;;;;;4955088;28;19962;-69
2022/06/05 11:59:34;;;;;;;;;;;20.80;45.10;;;;;;4978820;28;19979;-69
2022/06/05 12:02:02;;;;;;;;;;;20.80;45.10;;;;;;4964898;28;19926;-69
2022/06/05 12:04:32;;;;;;;;;;;20.80;45.10;;;;;;4977427;28;19926;-69
2022/06/05 12:06:59;;;;;;;;;;;20.80;45.00;;;;;;4958025;28;20461;-69
2022/06/05 12:09:26;;;;;;;;;;;20.80;45.00;;;;;;4958612;28;19933;-69
2022/06/05 12:11:55;;;;;;;;;;;20.80;45.00;;;;;;4973107;28;20001;-69
2022/06/05 12:14:24;;;;;;;;;;;20.80;44.90;;;;;;4986355;28;19937;-69
2022/06/05 12:20:13;;;;;;;;;;;20.80;44.60;;;;;;5035241;22;19959;-57
2022/06/05 12:22:41;;;;;;;;;;;20.80;44.60;;;;;;5086201;28;19920;-56
2022/06/05 12:25:15;;;;;;;;;;;20.80;44.60;;;;;;5073943;28;19947;-57
2022/06/05 12:27:43;;;;;;;;;;;20.80;44.50;;;;;;5073600;28;20300;-56
2022/06/05 12:30:16;;;;;;;;;;;20.80;44.30;;;;;;5078316;28;20258;-57
2022/06/05 12:32:46;;;;;;;;;;;20.80;44.20;;;;;;5079908;28;19920;-52
2022/06/05 12:35:14;;;;;;;;;;;20.80;44.20;;;;;;5080729;28;20277;-54
2022/06/05 12:37:42;;;;;;;;;;;20.90;44.20;;;;;;5076691;28;19921;-53
2022/06/05 12:40:16;;;;;;;;;;;20.90;44.40;;;;;;5078778;28;19920;-57
2022/06/05 12:42:45;;;;;;;;;;;20.90;44.60;;;;;;5077916;28;19997;-57
2022/06/05 12:45:17;;;;;;;;;;;20.90;44.60;;;;;;5075923;28;19956;-56
2022/06/05 12:47:51;;;;;;;;;;;20.90;44.70;;;;;;5076536;28;20307;-53
2022/06/05 12:50:26;;;;;;;;;;;20.90;44.40;;;;;;5081445;28;19935;-54
2022/06/05 12:52:54;;;;;;;;;;;20.90;44.10;;;;;;5084860;28;19954;-57
2022/06/05 12:55:22;;;;;;;;;;;20.90;43.70;;;;;;5076353;28;19928;-57
2022/06/05 12:57:51;;;;;;;;;;;20.90;43.70;;;;;;5072533;28;20320;-55
2022/06/05 13:00:21;;;;;;;;;;;20.90;43.60;;;;;;5074856;28;19920;-57
2022/06/05 13:02:50;;;;;;;;;;;21.00;43.50;;;;;;5074700;28;19920;-56
2022/06/05 13:05:21;;;;;;;;;;;20.90;43.30;;;;;;5073826;28;19928;-57
2022/06/05 13:07:49;;;;;;;;;;;20.90;43.00;;;;;;5074367;28;19921;-56
2022/06/05 13:10:18;;;;;;;;;;;20.90;42.90;;;;;;5072382;28;19921;-56
2022/06/05 13:12:46;;;;;;;;;;;21.00;42.80;;;;;;5078264;28;19927;-55
2022/06/05 13:15:17;;;;;;;;;;;20.90;42.40;;;;;;5082884;28;19931;-57
2022/06/05 13:17:46;;;;;;;;;;;21.00;42.40;;;;;;5089863;28;19920;-57
2022/06/05 13:20:16;;;;;;;;;;;21.00;42.20;;;;;;5096032;28;20316;-56
2022/06/05 13:22:45;;;;;;;;;;;21.00;42.20;;;;;;5081929;28;19992;-57
2022/06/05 13:25:14;;;;;;;;;;;21.00;41.90;;;;;;5073936;28;19920;-57
2022/06/05 13:27:46;;;;;;;;;;;21.00;42.00;;;;;;5073573;28;20306;-58
2022/06/05 13:30:13;;;;;;;;;;;21.00;41.90;;;;;;5076687;28;20357;-56
2022/06/05 13:32:58;;;;;;;;;;;21.00;41.90;;;;;;5053940;28;19978;-56
2022/06/05 13:35:30;;;;;;;;;;;21.00;41.90;;;;;;5073009;28;19921;-57
2022/06/05 13:37:58;;;;;;;;;;;21.00;41.70;;;;;;5081737;28;19924;-57
2022/06/05 13:40:29;;;;;;;;;;;21.00;41.60;;;;;;5073060;28;19920;-56
2022/06/05 13:42:56;;;;;;;;;;;21.00;41.60;;;;;;5073584;28;20383;-54
2022/06/05 13:45:26;;;;;;;;;;;21.10;41.70;;;;;;5073708;28;20415;-56
2022/06/05 13:47:54;;;;;;;;;;;21.10;41.80;;;;;;5072705;28;19920;-57
2022/06/05 13:50:36;;;;;;;;;;;21.00;41.90;;;;;;5070037;28;19928;-56
2022/06/05 13:53:12;;;;;;;;;;;21.00;42.00;;;;;;5069533;28;20022;-56
2022/06/05 13:55:45;;;;;;;;;;;21.10;42.10;;;;;;5077387;28;20369;-53
2022/06/05 13:58:18;;;;;;;;;;;21.00;42.70;;;;;;5074271;28;19956;-56
2022/06/05 14:00:50;;;;;;;;;;;21.10;41.80;;;;;;5074108;28;19920;-56
2022/06/05 14:03:17;;;;;;;;;;;21.10;41.80;;;;;;5073748;28;19920;-55
2022/06/05 14:05:46;;;;;;;;;;;21.10;41.90;;;;;;5071386;28;19921;-54
2022/06/05 14:08:23;;;;;;;;;;;21.10;41.90;;;;;;5072355;28;19927;-56
2022/06/05 14:10:54;;;;;;;;;;;21.10;41.80;;;;;;5077081;28;19920;-57
2022/06/05 14:13:21;;;;;;;;;;;21.10;41.60;;;;;;5071827;28;19927;-56
2022/06/05 14:15:48;;;;;;;;;;;21.10;41.30;;;;;;5074378;28;19927;-56
2022/06/05 14:18:19;;;;;;;;;;;21.20;40.80;;;;;;5084786;28;19923;-56
2022/06/05 14:20:47;;;;;;;;;;;21.20;40.50;;;;;;5092311;28;19924;-55
2022/06/05 14:23:20;;;;;;;;;;;21.20;40.60;;;;;;5093396;28;19928;-54
2022/06/05 14:25:47;;;;;;;;;;;21.30;40.20;;;;;;5092598;28;19946;-55
2022/06/05 14:28:14;;;;;;;;;;;21.30;40.30;;;;;;5090354;28;19924;-57
2022/06/05 14:30:43;;;;;;;;;;;21.30;40.00;;;;;;5081135;28;19967;-54
2022/06/05 14:33:15;;;;;;;;;;;21.30;39.60;;;;;;5081151;28;20352;-55
2022/06/05 14:35:44;;;;;;;;;;;21.30;39.60;;;;;;5077479;28;19921;-56
2022/06/05 14:38:14;;;;;;;;;;;21.30;39.30;;;;;;5076583;28;19920;-56
2022/06/05 14:40:45;;;;;;;;;;;21.30;38.80;;;;;;5075437;28;20342;-54
2022/06/05 14:43:14;;;;;;;;;;;21.30;38.70;;;;;;5075781;28;19924;-55
2022/06/05 14:45:42;;;;;;;;;;;21.40;38.40;;;;;;5075316;28;19920;-56
2022/06/05 14:48:14;;;;;;;;;;;21.30;37.90;;;;;;5075751;28;20257;-55